METAR* REPORTS - Stations within 60 miles

(*Meteorological Terminal Aviation Routine weather report)

 

KRDG - Reading, Pennsylvania, USA
Distance from station: SE 19mi, 31km
Updated: Sun, 16-Jan-2022 10:05pm EST
Light snow, Mist, Overcast
Light snow, Mist, Overcast
 Wind from N
Wind: N 13 mph , 20 km/h, Gust: 21 mph , 33 km/h
Temperature: 28°F , -2°C
Wind Chill: 17°F , -8°C
Dew Point: 27°F , -3°C
Humidity: 93%
Barometer: 29.64 inHg , 1003.7 hPa
Summary: Light snow, Mist
Clouds: Overcast
Visibility: 2 1/2 miles , 4 km
Cloud details: Mostly Cloudy 800 ft
Overcast 1200 ft
2022/01/17 03:05 KRDG 170305Z 01011G18KT 2 1/2SM -SN BR BKN008 OVC012 M02/M03 A2964 RMK AO2 UPB0256E0259SNE0256B0259 PRESFR P0002 I1000 T10221033
KLNS - Lancaster, Pennsylvania, USA
Distance from station: S 33mi, 53km
Updated: Sun, 16-Jan-2022 10:03pm EST
Freezing rain, Mist, Overcast
Freezing rain, Mist, Overcast
 Wind from E
Wind: E 25 mph , 41 km/h, Gust: 32 mph , 52 km/h
Temperature: 34°F , 1°C
Wind Chill: 21°F , -6°C
Dew Point: 30°F , -1°C
Humidity: 87%
Barometer: 29.58 inHg , 1001.7 hPa
Summary: Freezing rain, Mist
Clouds: Overcast
Visibility: 6 miles , 10 km
Cloud details: Overcast 1000 ft
2022/01/17 03:03 KLNS 170303Z 08022G28KT 6SM FZRA BR OVC010 01/M01 A2958 RMK AO2 PK WND 09028/0254 PRESFR P0001 I1001 T00111011
 
KSEG - Selinsgrove, Pennsylvania, USA
Distance from station: WNW 39mi, 62km
Updated: Sun, 16-Jan-2022 10:14pm EST
Light snow, Mist, Overcast
Light snow, Mist, Overcast
 Wind from NE
Wind: NE 9 mph , 15 km/h
Temperature: 27°F , -3°C
Wind Chill: 18°F , -8°C
Dew Point: 25°F , -4°C
Humidity: 93%
Barometer: 29.65 inHg , 1004.1 hPa
Summary: Light snow, Mist
Clouds: Overcast
Visibility: 3/4 mile , 1.2 km
Cloud details: Mostly Cloudy 500 ft
Mostly Cloudy 900 ft
Overcast 1600 ft
2022/01/17 03:14 KSEG 170314Z AUTO 04008KT 3/4SM -SN BR BKN005 BKN009 OVC016 M03/M04 A2965 RMK AO2 PRESFR P0005 T10281039
KABE - Allentown, Pennsylvania, USA
Distance from station: E 39mi, 63km
Updated: Sun, 16-Jan-2022 9:51pm EST
Light snow, Mist, Overcast
Light snow, Mist, Overcast
 Wind from ENE
Wind: ENE 17 mph , 28 km/h
Temperature: 25°F , -4°C
Wind Chill: 12°F , -11°C
Dew Point: 21°F , -6°C
Humidity: 86%
Barometer: 29.76 inHg , 1007.8 hPa
Summary: Light snow, Mist
Clouds: Overcast
Visibility: 1 mile , 2 km
Cloud details: Mostly Cloudy 1000 ft
Overcast 1500 ft
2022/01/17 02:51 KABE 170251Z 06015KT 1SM -SN BR BKN010 OVC015 M04/M06 A2976 RMK AO2 PRESFR SLP082 P0006 60017 T10391056 56055
 
KMDT - Middletown, Pennsylvania, USA
Distance from station: SW 40mi, 65km
Updated: Sun, 16-Jan-2022 10:04pm EST

 Wind from E
Wind: E 12 mph , 19 km/h, Gust: 18 mph , 30 km/h
Visibility: 5 miles , 8 km
2022/01/17 03:04 KMDT 170304Z 08010G16KT 5SM -FZRAPL OVC011 M01/M04 A2960 RMK AO2 RAE03FZRAB03 PRESFR P0001 I1000 T10111039
KPTW - Pottstown, Pennsylvania, USA
Distance from station: SE 42mi, 67km
Updated: Sun, 16-Jan-2022 9:54pm EST
Light freezing, Rain, Mist, Overcast
Light freezing, Rain, Mist, Overcast
 Wind from ENE
Wind: ENE 18 mph , 30 km/h, Gust: 32 mph , 52 km/h
Temperature: 32°F , 0°C
Wind Chill: 21°F , -6°C
Dew Point: 30°F , -1°C
Humidity: 93%
Barometer: 29.67 inHg , 1004.7 hPa
Summary: Light freezing, Rain, Mist
Clouds: Overcast
Visibility: 6 miles , 10 km
Cloud details: Overcast 900 ft
2022/01/17 02:54 KPTW 170254Z AUTO 06016G28KT 6SM -FZRA BR OVC009 00/M01 A2967 RMK AO2 PK WND 06028/0250 UPB0157E12FZRAB12SNE0157 PRESFR SLP049 P0008 60022 I1003 I3003 T00001011 58096
 
KCXY - Harrisburg, Pennsylvania, USA
Distance from station: SW 43mi, 69km
Updated: Sun, 16-Jan-2022 10:06pm EST
Light freezing, Rain, Overcast
Light freezing, Rain, Overcast
 Wind from E
Wind: E 17 mph , 28 km/h, Gust: 23 mph , 37 km/h
Temperature: 30°F , -1°C
Wind Chill: 18°F , -8°C
Dew Point: 27°F , -3°C
Humidity: 86%
Barometer: 29.60 inHg , 1002.4 hPa
Summary: Light freezing, Rain
Clouds: Overcast
Visibility: 6 miles , 10 km
Cloud details: Overcast 900 ft
2022/01/17 03:06 KCXY 170306Z AUTO 08015G20KT 6SM -FZRA OVC009 M01/M03 A2960 RMK AO2 UPE00FZRAB00 PRESFR P0001 I1001 T10061033
KUKT - Quakertown Arp, Pennsylvania, USA
Distance from station: ESE 44mi, 70km
Updated: Sun, 16-Jan-2022 10:15pm EST
Overcast
Overcast
 Wind from NE
Wind: NE 9 mph , 15 km/h, Gust: 22 mph , 35 km/h
Temperature: 32°F , 0°C
Wind Chill: 24°F , -4°C
Dew Point: 32°F , 0°C
Humidity: 100%
Barometer: 29.68 inHg , 1005.1 hPa
Clouds: Overcast
Visibility: 7 miles , 11 km
Cloud details: Overcast 700 ft
2022/01/17 03:15 KUKT 170315Z AUTO 04008G19KT 7SM OVC007 M00/M00 A2968 RMK A01
 
KMQS - Coatesville, Pennsylvania, USA
Distance from station: SSE 45mi, 72km
Updated: Sun, 16-Jan-2022 9:55pm EST
Light rain, Overcast
Light rain, Overcast
 Wind from ENE
Wind: ENE 12 mph , 19 km/h, Gust: 29 mph , 46 km/h
Temperature: 32°F , 0°C
Wind Chill: 23°F , -5°C
Dew Point: 32°F , 0°C
Humidity: 100%
Barometer: 29.61 inHg , 1002.7 hPa
Summary: Light Rain
Clouds: Overcast
Visibility: 3 miles , 5 km
Cloud details: Overcast 300 ft
2022/01/17 02:55 KMQS 170255Z AUTO 06010G25KT 3SM -RA OVC003 M00/M00 A2961 RMK AO2 P0005
KMPO - Mt. Pocono, Pennsylvania, USA
Distance from station: NE 57mi, 92km
Updated: Sun, 16-Jan-2022 10:10pm EST
Light snow, Mist, Overcast
Light snow, Mist, Overcast
 Wind from ENE
Wind: ENE 15 mph , 24 km/h, Gust: 23 mph , 37 km/h
Temperature: 21°F , -6°C
Wind Chill: 7°F , -14°C
Dew Point: 21°F , -6°C
Humidity: 100%
Barometer: 29.70 inHg , 1005.8 hPa
Summary: Light snow, Mist
Clouds: Overcast
Visibility: 1 mile , 2 km
Cloud details: Overcast 600 ft
2022/01/17 03:10 KMPO 170310Z AUTO 07013G20KT 1SM -SN BR VV006 M06/M06 A2970 RMK AO2 PRESFR P0000 T10561061 $
 
KAVP - Avoca/Wilkes B., Pennsylvania, USA
Distance from station: NNE 58mi, 93km
Updated: Sun, 16-Jan-2022 9:54pm EST
Snow, Freezing, Fog, Overcast
Snow, Freezing, Fog, Overcast
 Wind from NE
Wind: NE 12 mph , 19 km/h
Temperature: 25°F , -4°C
Wind Chill: 14°F , -10°C
Dew Point: 21°F , -6°C
Humidity: 86%
Barometer: 29.75 inHg , 1007.5 hPa
Summary: Snow, Freezing, Fog
Clouds: Overcast
Visibility: 1/2 mile , 0.8 km
Cloud details: Overcast 700 ft
2022/01/17 02:54 KAVP 170254Z 04010KT 1/2SM R04/3000VP6000FT SN FZFG VV007 M04/M06 A2975 RMK AO2 PRESFR SLP087 P0007 60016 T10391056 58045
KTHV - York, Pennsylvania, USA
Distance from station: SW 59mi, 94km
Updated: Sun, 16-Jan-2022 9:53pm EST
Light freezing, Rain, Mist, Overcast
Light freezing, Rain, Mist, Overcast
 Wind from ENE
Wind: ENE 18 mph , 30 km/h
Temperature: 30°F , -1°C
Wind Chill: 18°F , -8°C
Dew Point: 28°F , -2°C
Humidity: 93%
Barometer: 29.56 inHg , 1001 hPa
Summary: Light freezing, Rain, Mist
Clouds: Overcast
Visibility: 4 miles , 6 km
Cloud details: Overcast 600 ft
2022/01/17 02:53 KTHV 170253Z AUTO 07016KT 4SM -FZRA BR OVC006 M01/M02 A2956 RMK AO2 UPE04FZRAB04 PRESFR SLP019 P0005 60018 I1/// I3/// T10061022 58102 $
 
KDYL - Doylestown, Pennsylvania, USA
Distance from station: ESE 59mi, 95km
Updated: Sun, 16-Jan-2022 9:54pm EST
Light freezing, Rain, Overcast
Light freezing, Rain, Overcast
 Wind from varies
Wind: varies 7 mph , 11 km/h, Gust: 16 mph , 26 km/h
Temperature: 34°F , 1°C
Wind Chill: 28°F , -2°C
Dew Point: 30°F , -1°C
Humidity: 87%
Barometer: 29.71 inHg , 1006.1 hPa
Summary: Light freezing, Rain
Clouds: Overcast
Visibility: 9 miles , 14 km
Cloud details: Overcast 500 ft
2022/01/17 02:54 KDYL 170254Z AUTO VRB06G14KT 9SM -FZRA OVC005 01/M01 A2971 RMK AO2 UPB31E32FZRAB32SNE31 PRESFR SLP068 P0000 60000 I1002 I3002 T00111006 58086
KIPT - Williamsport, Pennsylvania, USA
Distance from station: NW 60mi, 96km
Updated: Sun, 16-Jan-2022 10:13pm EST
Snow, Freezing, Fog, Overcast
Snow, Freezing, Fog, Overcast
 Wind from calm
Wind: Calm
Temperature: 21°F , -6°C
Dew Point: 18°F , -8°C
Humidity: 86%
Barometer: 29.69 inHg , 1005.4 hPa
Summary: Snow, Freezing, Fog
Clouds: Overcast
Visibility: 1/2 mile , 0.8 km
Cloud details: Overcast 600 ft
2022/01/17 03:13 KIPT 170313Z 00000KT 1/2SM SN FZFG VV006 M06/M08 A2969 RMK AO2 PRESFR P0005 T10611078